Time;durP1;ratioP1;P1;durP2;ratioP2;P2;SDS_P1;SDS_P2;PMS_P1;PMS_P2;Temp;Humidity;BMP_temperature;BMP_pressure;BME280_temperature;BME280_humidity;BME280_pressure;Samples;Min_cycle;Max_cycle;Signal;HPM_P1;HPM_P2
2023/11/22 00:02:17;;;;;;;5.28;2.95;;;;;;;5.18;100.00;97612.28;5037373;28;20531;-63
2023/11/22 00:04:44;;;;;;;5.75;2.78;;;;;;;4.97;100.00;97628.66;5037329;28;20056;-64
2023/11/22 00:07:11;;;;;;;4.70;2.70;;;;;;;4.79;100.00;97622.06;5029744;28;20408;-64
2023/11/22 00:09:38;;;;;;;4.78;2.60;;;;;;;4.59;100.00;97619.38;5028644;28;20045;-64
2023/11/22 00:12:06;;;;;;;5.47;3.05;;;;;;;4.39;100.00;97620.22;5033926;28;20564;-63
2023/11/22 00:14:32;;;;;;;6.60;3.78;;;;;;;4.29;100.00;97637.53;5038628;28;20123;-64
2023/11/22 00:17:01;;;;;;;5.93;3.50;;;;;;;4.10;100.00;97641.00;5040977;28;20044;-64
2023/11/22 00:19:28;;;;;;;6.65;3.50;;;;;;;4.09;100.00;97655.44;5026173;28;20133;-63
2023/11/22 00:21:54;;;;;;;7.68;3.70;;;;;;;4.01;100.00;97646.56;5040693;28;20040;-64
2023/11/22 00:24:21;;;;;;;7.30;3.70;;;;;;;3.93;100.00;97660.13;5040538;28;20052;-64
2023/11/22 00:26:47;;;;;;;6.88;3.97;;;;;;;3.96;100.00;97670.47;5040741;28;20049;-65
2023/11/22 00:29:14;;;;;;;8.55;4.57;;;;;;;3.95;100.00;97678.69;5041872;28;20036;-63
2023/11/22 00:31:41;;;;;;;8.27;4.03;;;;;;;3.89;100.00;97674.97;5033146;28;20041;-64
2023/11/22 00:34:07;;;;;;;5.72;3.47;;;;;;;3.83;100.00;97676.59;5038753;28;20052;-64
2023/11/22 00:36:34;;;;;;;8.05;4.00;;;;;;;3.79;100.00;97674.53;5048246;28;20052;-64
2023/11/22 00:39:00;;;;;;;7.95;4.55;;;;;;;3.78;100.00;97689.75;5039585;28;20041;-63
2023/11/22 00:41:31;;;;;;;7.70;4.28;;;;;;;3.64;100.00;97692.38;5036194;28;20057;-64
2023/11/22 00:43:58;;;;;;;7.93;5.18;;;;;;;3.54;100.00;97693.78;5029941;28;20037;-64
2023/11/22 00:46:24;;;;;;;9.05;4.00;;;;;;;3.50;100.00;97691.50;5033954;28;20124;-63
2023/11/22 00:48:51;;;;;;;7.43;4.13;;;;;;;3.42;100.00;97696.19;5008558;28;20677;-62
2023/11/22 00:51:19;;;;;;;10.07;4.50;;;;;;;3.44;100.00;97703.00;4997480;28;20123;-64
2023/11/22 00:53:46;;;;;;;8.50;4.32;;;;;;;3.37;100.00;97694.09;5032940;28;20526;-63
2023/11/22 00:56:14;;;;;;;5.80;3.15;;;;;;;3.40;100.00;97720.50;5042388;28;20052;-63
2023/11/22 00:58:40;;;;;;;11.20;4.80;;;;;;;3.44;100.00;97716.41;5037498;28;20120;-64
2023/11/22 01:01:07;;;;;;;8.38;4.00;;;;;;;3.40;100.00;97719.66;5037708;28;20637;-63
2023/11/22 01:03:35;;;;;;;7.50;3.78;;;;;;;3.45;100.00;97723.41;5038941;28;20560;-64
2023/11/22 01:06:02;;;;;;;7.50;3.50;;;;;;;3.39;100.00;97718.81;5029522;28;20140;-63
2023/11/22 01:08:28;;;;;;;7.55;3.85;;;;;;;3.33;100.00;97708.91;5034139;28;20045;-64
2023/11/22 01:10:57;;;;;;;7.80;3.38;;;;;;;3.24;100.00;97710.91;5033072;28;20059;-63
2023/11/22 01:13:24;;;;;;;6.25;3.25;;;;;;;3.31;100.00;97716.31;5040583;28;20463;-63
2023/11/22 01:15:50;;;;;;;6.95;4.15;;;;;;;3.29;100.00;97713.84;5041064;28;20068;-64
2023/11/22 01:18:17;;;;;;;9.07;4.07;;;;;;;3.28;100.00;97711.34;5037798;28;20057;-64
2023/11/22 01:20:45;;;;;;;6.43;3.72;;;;;;;3.32;100.00;97720.66;5032715;28;20100;-63
2023/11/22 01:23:11;;;;;;;6.85;3.88;;;;;;;3.36;100.00;97716.56;5028503;28;20524;-63
2023/11/22 01:25:38;;;;;;;6.95;3.38;;;;;;;3.35;100.00;97712.19;5042528;28;20098;-63
2023/11/22 01:28:05;;;;;;;7.15;4.00;;;;;;;3.29;100.00;97716.50;5036798;28;20531;-65
2023/11/22 01:30:31;;;;;;;5.80;3.42;;;;;;;3.25;100.00;97710.72;5030491;28;20128;-63
2023/11/22 01:32:58;;;;;;;7.38;3.90;;;;;;;3.22;100.00;97713.78;5032634;28;20677;-65
2023/11/22 01:35:25;;;;;;;6.32;3.50;;;;;;;3.27;100.00;97709.72;5044105;28;20079;-64
2023/11/22 01:37:52;;;;;;;6.25;3.10;;;;;;;3.30;100.00;97717.31;5033230;28;20091;-64
2023/11/22 01:40:19;;;;;;;5.72;3.20;;;;;;;3.30;100.00;97715.47;5036605;28;20637;-64
2023/11/22 01:42:46;;;;;;;9.90;3.83;;;;;;;3.24;100.00;97714.41;5038500;28;20041;-64
2023/11/22 01:45:13;;;;;;;5.80;2.92;;;;;;;3.28;100.00;97717.50;5046180;28;20051;-64
2023/11/22 01:47:40;;;;;;;7.18;3.85;;;;;;;3.33;100.00;97724.97;5030627;28;20056;-63
2023/11/22 01:50:08;;;;;;;5.70;3.20;;;;;;;3.34;100.00;97737.31;5031961;28;20059;-65
2023/11/22 01:52:36;;;;;;;7.05;3.45;;;;;;;3.29;100.00;97742.44;5001203;28;20049;-65
2023/11/22 01:55:06;;;;;;;7.28;3.10;;;;;;;3.29;100.00;97740.59;5031076;28;20033;-64
2023/11/22 01:57:33;;;;;;;5.25;3.35;;;;;;;3.24;100.00;97746.53;5044464;28;20424;-64
2023/11/22 02:00:04;;;;;;;5.78;3.45;;;;;;;3.18;100.00;97750.00;5043905;28;20754;-64
2023/11/22 02:02:38;;;;;;;5.63;2.95;;;;;;;3.18;100.00;97749.16;5044316;28;20116;-62
2023/11/22 02:05:05;;;;;;;5.25;2.88;;;;;;;3.15;100.00;97749.53;5034114;28;20041;-64
2023/11/22 02:07:32;;;;;;;4.97;2.90;;;;;;;3.01;100.00;97756.63;5038532;28;20402;-64
2023/11/22 02:09:58;;;;;;;5.15;3.00;;;;;;;2.98;100.00;97760.53;5040159;28;20076;-64
2023/11/22 02:12:25;;;;;;;5.07;3.08;;;;;;;2.99;100.00;97770.22;5042143;28;20041;-64
2023/11/22 02:14:52;;;;;;;6.07;2.88;;;;;;;2.92;100.00;97762.16;5040586;28;20484;-64
2023/11/22 02:17:18;;;;;;;5.70;2.92;;;;;;;2.88;100.00;97768.06;5042067;28;20049;-63
2023/11/22 02:19:45;;;;;;;6.68;3.25;;;;;;;2.87;100.00;97764.53;5050670;28;20247;-64
2023/11/22 02:22:12;;;;;;;5.63;3.42;;;;;;;2.87;100.00;97764.53;5034122;28;20463;-64
2023/11/22 02:24:38;;;;;;;6.03;3.33;;;;;;;2.74;100.00;97770.63;5042404;28;20052;-63
2023/11/22 02:27:06;;;;;;;6.13;3.05;;;;;;;2.75;100.00;97768.75;5043904;28;20053;-64
2023/11/22 02:29:33;;;;;;;4.75;2.70;;;;;;;2.75;100.00;97768.75;5047894;28;20045;-63
2023/11/22 02:32:00;;;;;;;7.13;3.58;;;;;;;2.72;100.00;97770.81;5043164;28;20124;-62
2023/11/22 02:34:26;;;;;;;6.70;3.75;;;;;;;2.63;100.00;97787.16;5035504;28;20136;-65
2023/11/22 02:36:53;;;;;;;8.02;3.40;;;;;;;2.62;100.00;97785.50;5043628;28;20041;-64
2023/11/22 02:39:40;;;;;;;6.88;3.60;;;;;;;2.62;100.00;97788.19;5036217;28;20044;-64
2023/11/22 02:42:08;;;;;;;5.03;2.88;;;;;;;2.63;100.00;97790.69;5037540;28;20041;-64
2023/11/22 02:44:35;;;;;;;6.55;2.95;;;;;;;2.56;100.00;97795.97;5043514;28;20751;-64
2023/11/22 02:47:01;;;;;;;6.07;3.40;;;;;;;2.54;100.00;97797.97;5021505;28;20492;-63
2023/11/22 02:49:29;;;;;;;5.05;2.92;;;;;;;2.38;100.00;97798.22;5029288;28;20048;-64
2023/11/22 02:51:56;;;;;;;5.15;2.88;;;;;;;2.37;100.00;97797.41;5014390;28;21000;-63
2023/11/22 02:54:22;;;;;;;6.75;3.95;;;;;;;2.12;100.00;97807.56;5012363;28;20052;-65
2023/11/22 02:56:49;;;;;;;7.80;3.80;;;;;;;2.07;100.00;97819.63;5017164;28;20417;-64
2023/11/22 02:59:16;;;;;;;7.03;3.70;;;;;;;2.03;100.00;97820.22;5038128;28;20059;-64
2023/11/22 03:01:45;;;;;;;5.38;3.20;;;;;;;2.04;100.00;97827.22;5042629;28;20064;-64
2023/11/22 03:04:12;;;;;;;7.80;3.40;;;;;;;1.95;100.00;97832.66;5041747;28;20049;-64
2023/11/22 03:06:40;;;;;;;7.53;3.60;;;;;;;1.84;100.00;97835.78;5038279;28;20065;-64
2023/11/22 03:09:08;;;;;;;7.60;4.38;;;;;;;1.73;100.00;97836.25;5047382;28;20040;-64
2023/11/22 03:11:34;;;;;;;7.07;3.83;;;;;;;1.66;100.00;97834.28;5037847;28;20092;-64
2023/11/22 03:14:03;;;;;;;7.63;3.88;;;;;;;1.68;100.00;97842.13;5033470;28;20044;-62
2023/11/22 03:16:30;;;;;;;6.78;3.97;;;;;;;1.66;100.00;97847.63;5040993;28;20563;-64
2023/11/22 03:18:58;;;;;;;7.25;3.90;;;;;;;1.72;100.00;97856.75;5041785;28;20099;-64
2023/11/22 03:21:27;;;;;;;8.50;4.28;;;;;;;1.66;100.00;97852.97;5037487;28;20049;-63
2023/11/22 03:23:54;;;;;;;7.45;3.78;;;;;;;1.72;100.00;97861.25;5040805;28;20041;-65
2023/11/22 03:26:21;;;;;;;6.22;3.55;;;;;;;1.70;100.00;97845.44;5033527;28;20128;-64
2023/11/22 03:28:47;;;;;;;5.70;3.67;;;;;;;1.74;100.00;97845.91;5034025;28;20049;-63
2023/11/22 03:31:14;;;;;;;6.75;4.43;;;;;;;1.77;100.00;97853.56;5038626;28;20604;-64
2023/11/22 03:33:40;;;;;;;7.38;4.15;;;;;;;1.81;100.00;97849.50;5045821;28;20041;-63
2023/11/22 03:36:07;;;;;;;8.45;4.25;;;;;;;1.78;100.00;97842.69;5036345;28;20044;-64
2023/11/22 03:38:34;;;;;;;7.20;4.63;;;;;;;1.70;100.00;97858.81;5033017;28;20037;-64
2023/11/22 03:41:00;;;;;;;7.45;4.28;;;;;;;1.83;100.00;97868.84;5037667;28;20110;-64
2023/11/22 03:43:27;;;;;;;7.88;4.35;;;;;;;1.83;100.00;97860.81;5038082;28;20056;-64
2023/11/22 03:45:54;;;;;;;7.95;4.30;;;;;;;1.80;100.00;97862.03;5033488;28;20080;-64
2023/11/22 03:48:23;;;;;;;7.65;3.83;;;;;;;1.81;100.00;97866.34;5038422;28;20475;-64
2023/11/22 03:50:50;;;;;;;7.32;4.03;;;;;;;1.87;100.00;97878.13;5036705;28;20059;-64
2023/11/22 03:53:18;;;;;;;6.90;4.05;;;;;;;1.92;100.00;97873.06;5032348;28;20129;-64
2023/11/22 03:55:45;;;;;;;6.75;4.13;;;;;;;1.94;100.00;97867.53;5029267;28;20065;-63
2023/11/22 03:58:11;;;;;;;6.90;3.75;;;;;;;1.95;100.00;97886.06;5032069;28;20040;-64
2023/11/22 04:00:38;;;;;;;7.20;3.55;;;;;;;2.03;100.00;97887.81;5035108;28;20122;-62
2023/11/22 04:03:04;;;;;;;5.68;3.67;;;;;;;2.06;100.00;97889.28;5040165;28;20532;-64
2023/11/22 04:05:31;;;;;;;7.43;3.13;;;;;;;1.99;100.00;97883.84;5014630;28;20728;-64
2023/11/22 04:07:58;;;;;;;5.60;3.20;;;;;;;2.02;100.00;97890.66;5035668;28;20037;-63
2023/11/22 04:10:25;;;;;;;6.72;3.03;;;;;;;2.07;100.00;97888.28;5034050;28;20053;-64
2023/11/22 04:12:52;;;;;;;6.13;3.45;;;;;;;2.06;100.00;97892.78;5033353;28;20049;-63
2023/11/22 04:15:18;;;;;;;4.82;3.05;;;;;;;2.07;100.00;97894.44;5032296;28;20036;-64
2023/11/22 04:17:47;;;;;;;6.03;3.20;;;;;;;2.06;100.00;97887.44;5036860;28;20044;-63
2023/11/22 04:20:14;;;;;;;6.28;3.25;;;;;;;2.09;100.00;97880.91;5025415;28;20653;-63
2023/11/22 04:22:44;;;;;;;8.85;2.95;;;;;;;2.05;100.00;97887.63;5038682;28;20045;-64
2023/11/22 04:25:14;;;;;;;5.90;3.17;;;;;;;2.03;100.00;97890.47;5044013;28;20320;-64
2023/11/22 04:27:41;;;;;;;4.95;2.55;;;;;;;2.00;100.00;97898.03;5034068;28;20041;-64
2023/11/22 04:30:13;;;;;;;4.40;2.33;;;;;;;1.99;100.00;97897.19;5035078;28;20080;-63
2023/11/22 04:32:41;;;;;;;5.05;2.78;;;;;;;1.94;100.00;97905.78;5035593;28;20135;-63
2023/11/22 04:35:09;;;;;;;5.22;2.88;;;;;;;1.86;100.00;97908.53;5034499;28;20462;-64
2023/11/22 04:37:36;;;;;;;6.68;2.95;;;;;;;1.80;100.00;97910.09;5035062;28;20036;-62
2023/11/22 04:40:07;;;;;;;5.47;2.80;;;;;;;1.80;100.00;97925.25;5040167;28;20037;-64
2023/11/22 04:42:36;;;;;;;5.93;2.88;;;;;;;1.77;100.00;97929.13;5033821;28;20120;-64
2023/11/22 04:45:03;;;;;;;5.68;2.75;;;;;;;1.78;100.00;97933.47;5032123;28;20045;-64
2023/11/22 04:47:30;;;;;;;6.70;2.90;;;;;;;1.84;100.00;97936.44;5037512;28;20049;-63
2023/11/22 04:49:57;;;;;;;6.93;2.95;;;;;;;1.82;100.00;97939.28;5041546;28;20124;-61
2023/11/22 04:52:23;;;;;;;4.95;2.53;;;;;;;1.85;100.00;97948.75;5043334;28;20120;-63
2023/11/22 04:54:50;;;;;;;5.30;2.42;;;;;;;1.84;100.00;97947.13;5042497;28;20060;-64
2023/11/22 04:57:16;;;;;;;4.68;2.65;;;;;;;1.79;100.00;97951.16;5042615;28;20043;-63
2023/11/22 04:59:43;;;;;;;6.93;2.80;;;;;;;1.80;100.00;97962.66;5041594;28;20052;-63
2023/11/22 05:02:11;;;;;;;5.15;2.70;;;;;;;1.76;100.00;97954.19;5036211;28;20554;-65
2023/11/22 05:04:37;;;;;;;4.60;2.50;;;;;;;1.74;100.00;97960.72;5036336;28;20570;-64
2023/11/22 05:07:04;;;;;;;5.78;2.67;;;;;;;1.71;100.00;97963.72;5038825;28;20045;-64
2023/11/22 05:09:30;;;;;;;5.65;2.92;;;;;;;1.69;100.00;97963.91;5047574;28;20641;-64
2023/11/22 05:11:57;;;;;;;5.20;2.85;;;;;;;1.68;100.00;97968.44;5037413;28;20112;-64
2023/11/22 05:14:24;;;;;;;5.60;3.03;;;;;;;1.64;100.00;97966.28;5032771;28;20119;-64
2023/11/22 05:16:50;;;;;;;5.65;2.65;;;;;;;1.64;100.00;97972.47;5043674;28;20060;-64
2023/11/22 05:19:17;;;;;;;6.05;2.78;;;;;;;1.68;100.00;97976.44;5052573;28;20063;-63
2023/11/22 05:21:43;;;;;;;6.63;3.63;;;;;;;1.68;100.00;97987.13;5053657;28;20044;-63
2023/11/22 05:24:10;;;;;;;5.85;3.05;;;;;;;1.68;100.00;97988.97;5042854;28;20041;-64
2023/11/22 05:26:37;;;;;;;6.78;3.05;;;;;;;1.61;100.00;97988.84;5042563;28;20036;-64
2023/11/22 05:29:04;;;;;;;4.15;2.50;;;;;;;1.59;100.00;97982.88;5028441;28;20501;-64
2023/11/22 05:31:31;;;;;;;8.23;3.08;;;;;;;1.63;100.00;97986.84;5039752;28;20424;-64
2023/11/22 05:33:58;;;;;;;4.80;2.63;;;;;;;1.66;100.00;97982.97;5048542;28;20064;-64
2023/11/22 05:36:24;;;;;;;5.82;2.70;;;;;;;1.65;100.00;97982.13;5057564;28;20040;-65
2023/11/22 05:38:51;;;;;;;6.28;2.92;;;;;;;1.66;100.00;97980.31;5054456;28;20644;-64
2023/11/22 05:41:17;;;;;;;5.15;2.70;;;;;;;1.69;100.00;97983.44;5043412;28;20044;-64
2023/11/22 05:43:44;;;;;;;5.47;2.53;;;;;;;1.71;100.00;97988.59;5035155;28;20033;-64
2023/11/22 05:46:12;;;;;;;6.90;3.55;;;;;;;1.65;100.00;97981.28;5051674;28;20041;-64
2023/11/22 05:48:39;;;;;;;5.20;2.90;;;;;;;1.64;100.00;97987.66;5042439;28;20044;-63
2023/11/22 05:51:08;;;;;;;5.85;2.88;;;;;;;1.69;100.00;97990.59;5054756;28;20045;-64
2023/11/22 05:53:35;;;;;;;5.72;2.78;;;;;;;1.70;100.00;98000.31;5056995;28;20165;-64
2023/11/22 05:56:02;;;;;;;5.47;2.80;;;;;;;1.73;100.00;97993.78;5040457;28;20682;-63
2023/11/22 05:58:30;;;;;;;4.88;2.65;;;;;;;1.73;100.00;97999.13;5042041;28;20051;-64
2023/11/22 06:00:57;;;;;;;4.75;2.47;;;;;;;1.76;100.00;98002.25;5039357;28;20053;-63
2023/11/22 06:03:24;;;;;;;5.85;3.42;;;;;;;1.77;100.00;98011.91;5036353;28;20047;-63
2023/11/22 06:05:50;;;;;;;5.20;2.60;;;;;;;1.79;100.00;98020.59;5048790;28;20041;-64
2023/11/22 06:08:17;;;;;;;4.20;2.67;;;;;;;1.84;100.00;98028.03;5048206;28;20072;-64
2023/11/22 06:10:44;;;;;;;4.68;2.42;;;;;;;1.78;100.00;98036.78;5039681;28;20055;-63
2023/11/22 06:13:12;;;;;;;12.13;2.97;;;;;;;1.77;100.00;98032.47;5036320;28;20575;-64
2023/11/22 06:15:38;;;;;;;6.68;3.53;;;;;;;1.69;100.00;98047.53;5041728;28;20133;-65
2023/11/22 06:18:05;;;;;;;5.63;2.60;;;;;;;1.68;100.00;98053.88;5036444;28;20064;-62
2023/11/22 06:20:31;;;;;;;4.68;2.72;;;;;;;1.62;100.00;98046.56;5046111;28;20049;-62
2023/11/22 06:22:58;;;;;;;3.35;2.00;;;;;;;1.65;100.00;98054.22;5037916;28;20125;-62
2023/11/22 06:25:25;;;;;;;5.10;2.40;;;;;;;1.67;100.00;98060.19;5040579;28;20083;-65
2023/11/22 06:27:51;;;;;;;5.07;2.83;;;;;;;1.60;100.00;98056.59;5040495;28;20049;-65
2023/11/22 06:30:18;;;;;;;5.75;3.40;;;;;;;1.61;100.00;98058.25;5039819;28;20207;-65
2023/11/22 06:32:45;;;;;;;5.20;2.70;;;;;;;1.64;100.00;98060.56;5042560;28;20044;-64
2023/11/22 06:35:14;;;;;;;4.88;2.85;;;;;;;1.62;100.00;98061.75;5043204;28;20112;-65
2023/11/22 06:37:41;;;;;;;5.45;2.85;;;;;;;1.66;100.00;98071.91;5043968;28;20044;-64
2023/11/22 06:40:08;;;;;;;4.53;2.45;;;;;;;1.78;100.00;98066.16;5042292;28;20069;-65
2023/11/22 06:42:34;;;;;;;8.50;3.55;;;;;;;1.81;100.00;98065.81;5048708;28;20041;-65
2023/11/22 06:45:01;;;;;;;7.40;3.17;;;;;;;1.77;100.00;98070.66;5044861;28;20497;-65
2023/11/22 06:47:28;;;;;;;4.88;2.85;;;;;;;1.72;100.00;98069.50;5040556;28;20041;-64
2023/11/22 06:49:55;;;;;;;5.47;3.10;;;;;;;1.64;100.00;98073.91;5035567;28;20124;-62
2023/11/22 06:52:21;;;;;;;5.75;2.95;;;;;;;1.54;100.00;98076.81;5040228;28;20125;-62
2023/11/22 06:54:47;;;;;;;5.70;3.10;;;;;;;1.48;100.00;98076.69;5047803;28;20508;-63
2023/11/22 06:57:14;;;;;;;7.45;2.88;;;;;;;1.58;100.00;98090.63;5042180;28;20706;-65
2023/11/22 06:59:41;;;;;;;4.03;2.30;;;;;;;1.60;100.00;98093.97;5033392;28;20041;-62
2023/11/22 07:02:07;;;;;;;4.90;2.65;;;;;;;1.63;100.00;98093.63;5038217;28;20042;-62
2023/11/22 07:04:34;;;;;;;5.57;2.70;;;;;;;1.60;100.00;98091.31;5037828;28;20048;-65
2023/11/22 07:07:02;;;;;;;5.30;2.53;;;;;;;1.37;100.00;98097.41;5042972;28;20049;-64
2023/11/22 07:09:28;;;;;;;5.10;2.65;;;;;;;1.45;100.00;98096.56;5041068;28;20061;-65
2023/11/22 07:11:57;;;;;;;8.43;2.88;;;;;;;1.34;100.00;98103.13;5049035;28;20527;-65
2023/11/22 07:14:24;;;;;;;4.65;2.45;;;;;;;1.40;100.00;98105.06;5035111;28;20041;-65
2023/11/22 07:16:51;;;;;;;4.80;2.05;;;;;;;1.28;100.00;98111.81;5036314;28;20678;-65
2023/11/22 07:19:20;;;;;;;7.65;2.05;;;;;;;1.21;100.00;98121.53;5040564;28;20115;-65
2023/11/22 07:21:48;;;;;;;4.65;2.35;;;;;;;1.29;100.00;98122.31;5035619;28;20875;-65
2023/11/22 07:24:15;;;;;;;5.68;2.08;;;;;;;1.25;100.00;98130.84;5042160;28;20052;-65
2023/11/22 07:26:42;;;;;;;5.50;2.20;;;;;;;1.19;100.00;98131.53;5046559;28;20128;-65
2023/11/22 07:29:09;;;;;;;3.85;2.22;;;;;;;1.17;100.00;98132.53;5035395;28;20072;-65
2023/11/22 07:31:36;;;;;;;4.70;2.30;;;;;;;0.94;100.00;98140.44;5036970;28;20071;-64
2023/11/22 07:34:02;;;;;;;3.78;2.08;;;;;;;0.86;100.00;98149.31;5041065;28;20120;-65
2023/11/22 07:36:30;;;;;;;5.63;2.55;;;;;;;0.81;100.00;98156.94;5040048;28;20072;-65
2023/11/22 07:38:57;;;;;;;4.22;2.65;;;;;;;0.80;100.00;98159.81;5033770;28;20047;-65
2023/11/22 07:41:23;;;;;;;8.15;2.53;;;;;;;0.85;100.00;98165.47;5033204;28;20049;-64
2023/11/22 07:43:50;;;;;;;5.75;2.45;;;;;;;0.87;100.00;98171.44;5043467;28;20052;-65
2023/11/22 07:46:17;;;;;;;4.30;2.30;;;;;;;0.88;100.00;98173.94;5037146;28;20481;-65
2023/11/22 07:48:44;;;;;;;5.45;2.10;;;;;;;0.69;100.00;98163.63;5030011;28;20045;-65
2023/11/22 07:51:15;;;;;;;6.38;2.35;;;;;;;0.72;100.00;98164.16;5038020;28;20341;-66
2023/11/22 07:53:43;;;;;;;6.73;2.87;;;;;;;0.74;100.00;98164.81;5030863;28;20124;-64
2023/11/22 07:56:11;;;;;;;5.93;2.83;;;;;;;0.63;100.00;98162.50;5049164;28;20132;-63
2023/11/22 07:58:38;;;;;;;4.38;2.30;;;;;;;0.64;100.00;98162.34;5039093;28;20052;-64
2023/11/22 08:01:04;;;;;;;5.88;2.95;;;;;;;0.67;100.00;98161.16;5031000;28;20044;-65
2023/11/22 08:03:31;;;;;;;4.60;2.08;;;;;;;0.60;100.00;98154.84;5044469;28;20044;-65
2023/11/22 08:05:58;;;;;;;4.15;2.50;;;;;;;0.49;100.00;98158.69;5041624;28;20045;-64
2023/11/22 08:08:25;;;;;;;5.10;2.72;;;;;;;0.54;100.00;98164.31;5037507;28;20069;-64
2023/11/22 08:10:53;;;;;;;5.72;2.70;;;;;;;0.46;100.00;98167.00;5035978;28;20049;-64
2023/11/22 08:13:22;;;;;;;6.40;2.58;;;;;;;0.44;100.00;98161.81;5035504;28;20049;-64
2023/11/22 08:15:49;;;;;;;6.25;2.63;;;;;;;0.37;100.00;98159.00;5028901;28;20120;-62
2023/11/22 08:18:16;;;;;;;4.60;2.15;;;;;;;0.37;100.00;98161.66;5029497;28;20041;-62
2023/11/22 08:20:43;;;;;;;4.53;2.15;;;;;;;0.41;100.00;98162.19;5027985;28;20052;-65
2023/11/22 08:23:12;;;;;;;4.97;2.70;;;;;;;0.42;100.00;98166.50;5029753;28;20048;-64
2023/11/22 08:25:39;;;;;;;5.50;2.42;;;;;;;0.57;100.00;98168.50;5045051;28;20163;-64
2023/11/22 08:28:09;;;;;;;5.63;2.50;;;;;;;0.58;100.00;98157.66;5027343;28;20040;-65
2023/11/22 08:30:37;;;;;;;4.97;2.15;;;;;;;0.61;100.00;98169.81;5031016;28;20083;-64
2023/11/22 08:33:03;;;;;;;6.45;3.10;;;;;;;0.56;100.00;98166.84;5038663;28;20611;-64
2023/11/22 08:35:30;;;;;;;6.32;2.80;;;;;;;0.59;100.00;98159.31;5034709;28;20041;-65
2023/11/22 08:37:58;;;;;;;6.18;2.75;;;;;;;0.63;100.00;98165.16;5030012;28;20463;-64
2023/11/22 08:40:25;;;;;;;6.13;2.67;;;;;;;0.75;100.00;98165.66;5044768;28;20053;-64
2023/11/22 08:42:52;;;;;;;5.75;3.22;;;;;;;0.49;100.00;98166.66;5040058;28;20055;-66
2023/11/22 08:45:19;;;;;;;6.18;3.15;;;;;;;0.52;100.00;98172.50;5029816;28;20098;-64
2023/11/22 08:47:46;;;;;;;7.35;3.08;;;;;;;0.67;100.00;98176.31;5036419;28;20447;-65
2023/11/22 08:50:12;;;;;;;5.75;3.03;;;;;;;0.64;100.00;98181.00;5028059;28;20055;-64
2023/11/22 08:52:41;;;;;;;8.05;4.28;;;;;;;0.63;100.00;98181.16;5029170;28;20135;-65
2023/11/22 08:55:08;;;;;;;7.63;4.53;;;;;;;0.56;100.00;98178.34;5029233;28;20064;-65
2023/11/22 08:57:37;;;;;;;7.53;3.90;;;;;;;0.37;100.00;98187.50;5029053;28;20124;-64
2023/11/22 09:00:06;;;;;;;7.63;3.63;;;;;;;0.57;100.00;98188.00;5031080;28;20064;-64
2023/11/22 09:02:33;;;;;;;6.55;2.53;;;;;;;0.68;100.00;98186.81;5031666;28;20408;-64
2023/11/22 09:05:00;;;;;;;5.50;2.88;;;;;;;0.76;100.00;98178.81;5035318;28;20033;-64
2023/11/22 09:07:28;;;;;;;5.47;2.75;;;;;;;0.89;100.00;98177.47;5023355;28;20049;-65
2023/11/22 09:09:54;;;;;;;6.88;2.83;;;;;;;0.98;100.00;98170.25;5028138;28;20043;-65
2023/11/22 09:12:21;;;;;;;5.90;3.13;;;;;;;0.98;100.00;98176.44;5029862;28;20050;-64
2023/11/22 09:14:47;;;;;;;7.30;3.40;;;;;;;0.82;100.00;98168.47;5028590;28;20052;-64
2023/11/22 09:17:14;;;;;;;6.93;3.28;;;;;;;0.92;100.00;98173.63;5029589;28;20042;-63
2023/11/22 09:19:40;;;;;;;5.28;3.00;;;;;;;0.85;100.00;98168.13;5034135;28;20041;-66
2023/11/22 09:22:08;;;;;;;7.00;3.22;;;;;;;0.90;100.00;98171.97;5025351;28;20038;-66
2023/11/22 09:24:36;;;;;;;6.65;2.95;;;;;;;0.99;100.00;98164.75;5026009;28;20148;-66
2023/11/22 09:27:05;;;;;;;5.90;2.90;;;;;;;1.09;100.00;98172.56;5026185;28;20041;-65
2023/11/22 09:29:35;;;;;;;5.15;2.80;;;;;;;1.27;100.00;98176.84;5033864;28;20120;-65
2023/11/22 09:32:02;;;;;;;6.35;3.60;;;;;;;1.30;100.00;98177.31;5029507;28;20041;-64
2023/11/22 09:34:29;;;;;;;6.43;3.20;;;;;;;1.34;100.00;98185.84;5025699;28;20117;-64
2023/11/22 09:36:56;;;;;;;5.38;2.38;;;;;;;1.28;100.00;98181.19;5023161;28;20042;-63
2023/11/22 09:39:24;;;;;;;8.70;3.97;;;;;;;1.27;100.00;98191.03;5026565;28;20065;-62
2023/11/22 09:41:51;;;;;;;8.93;2.83;;;;;;;1.22;100.00;98189.88;5029145;28;20497;-62
2023/11/22 09:44:18;;;;;;;7.50;3.30;;;;;;;1.18;100.00;98194.72;5031976;28;20594;-62
2023/11/22 09:46:47;;;;;;;6.90;3.17;;;;;;;1.17;100.00;98195.72;5030903;28;20033;-65
2023/11/22 09:49:22;;;;;;;8.75;4.25;;;;;;;0.97;100.00;98204.09;5032451;28;20046;-65
2023/11/22 09:51:51;;;;;;;6.50;3.53;;;;;;;0.82;100.00;98197.78;5027187;28;20037;-65
2023/11/22 09:54:19;;;;;;;5.72;3.58;;;;;;;0.84;100.00;98199.28;5031229;28;20045;-65
2023/11/22 09:56:50;;;;;;;6.35;3.40;;;;;;;0.70;100.00;98207.97;5030548;28;20033;-64
2023/11/22 09:59:18;;;;;;;;;;;;;;;0.89;100.00;98212.94;5034468;28;20038;-66
2023/11/22 10:01:45;;;;;;;6.05;3.30;;;;;;;1.13;100.00;98218.41;5023894;28;19929;-64
2023/11/22 10:04:11;;;;;;;8.30;3.67;;;;;;;1.29;100.00;98222.88;5026007;28;20048;-64
2023/11/22 10:06:39;;;;;;;6.18;3.25;;;;;;;1.33;100.00;98218.03;5023598;28;20049;-65
2023/11/22 10:09:09;;;;;;;8.80;4.15;;;;;;;1.35;100.00;98221.34;5036012;28;20124;-64
2023/11/22 10:11:38;;;;;;;7.57;3.58;;;;;;;1.39;100.00;98230.66;5026655;28;20041;-63
2023/11/22 10:14:05;;;;;;;6.55;3.38;;;;;;;1.48;100.00;98232.34;5036462;28;20593;-65
2023/11/22 10:16:32;;;;;;;6.07;3.13;;;;;;;1.58;100.00;98240.13;5035840;28;20037;-64
2023/11/22 10:18:58;;;;;;;6.13;2.60;;;;;;;1.62;100.00;98236.09;5026846;28;20436;-64
2023/11/22 10:21:28;;;;;;;6.68;2.97;;;;;;;1.75;100.00;98232.91;5029931;28;20040;-64
2023/11/22 10:23:56;;;;;;;8.43;3.55;;;;;;;1.63;100.00;98226.25;5031398;28;20044;-64
2023/11/22 10:26:24;;;;;;;7.00;3.35;;;;;;;1.48;100.00;98220.81;5028362;28;20046;-64
2023/11/22 10:28:54;;;;;;;8.98;3.95;;;;;;;1.16;100.00;98220.72;5043013;28;20036;-63
2023/11/22 10:31:22;;;;;;;6.20;3.40;;;;;;;1.24;100.00;98228.72;5030261;28;20063;-64
2023/11/22 10:33:49;;;;;;;9.07;3.70;;;;;;;1.35;100.00;98227.53;5026826;28;20102;-65
2023/11/22 10:36:17;;;;;;;6.53;3.10;;;;;;;1.35;100.00;98226.69;5030136;28;20037;-65
2023/11/22 10:38:48;;;;;;;7.45;3.53;;;;;;;1.46;100.00;98222.81;5027415;28;20037;-65
2023/11/22 10:41:15;;;;;;;6.97;3.50;;;;;;;1.40;100.00;98216.34;5044743;28;20084;-64
2023/11/22 10:43:42;;;;;;;8.30;3.60;;;;;;;1.23;100.00;98219.06;5040450;28;20072;-64
2023/11/22 10:46:12;;;;;;;7.63;3.67;;;;;;;1.39;100.00;98207.50;5034596;28;20571;-64
2023/11/22 10:48:39;;;;;;;8.07;3.78;;;;;;;1.49;100.00;98222.47;5032746;28;20124;-65
2023/11/22 10:51:09;;;;;;;6.38;3.47;;;;;;;1.52;100.00;98233.63;5028798;28;20127;-65
2023/11/22 10:53:38;;;;;;;6.50;3.72;;;;;;;1.25;100.00;98229.56;5026231;28;20041;-64
2023/11/22 10:56:15;;;;;;;8.57;3.90;;;;;;;1.22;100.00;98243.25;5027550;28;20562;-64
2023/11/22 10:58:48;;;;;;;6.95;3.65;;;;;;;1.41;100.00;98258.84;5035771;28;20044;-64
2023/11/22 11:01:19;;;;;;;7.90;3.15;;;;;;;1.55;100.00;98264.50;5033984;28;20033;-64
2023/11/22 11:04:00;;;;;;;9.20;4.37;;;;;;;1.59;100.00;98265.84;5035395;28;20045;-64
2023/11/22 11:06:33;;;;;;;7.07;3.53;;;;;;;1.61;100.00;98269.16;5028803;28;20321;-62
2023/11/22 11:09:09;;;;;;;8.80;4.18;;;;;;;1.67;100.00;98263.09;5033419;28;20033;-65
2023/11/22 11:11:36;;;;;;;8.60;3.65;;;;;;;1.51;100.00;98264.00;5041573;28;20140;-65
2023/11/22 11:14:05;;;;;;;6.68;3.78;;;;;;;1.60;100.00;98267.50;5030001;28;20042;-63
2023/11/22 11:16:37;;;;;;;7.25;3.88;;;;;;;1.43;100.00;98261.34;5036843;28;20706;-65
2023/11/22 11:19:05;;;;;;;9.63;4.05;;;;;;;1.25;100.00;98269.59;5031960;28;20386;-64
2023/11/22 11:21:33;;;;;;;8.70;4.32;;;;;;;1.29;100.00;98266.38;5032661;28;20463;-64
2023/11/22 11:24:03;;;;;;;7.60;3.70;;;;;;;1.34;100.00;98267.72;5035655;28;20051;-65
2023/11/22 11:26:34;;;;;;;9.77;3.65;;;;;;;1.28;100.00;98280.75;5026025;28;20124;-65
2023/11/22 11:29:03;;;;;;;;;;;;;;;1.42;100.00;98281.03;5030510;28;20038;-63
2023/11/22 11:31:37;;;;;;;5.32;3.20;;;;;;;1.57;100.00;98278.50;5044818;28;19929;-65
2023/11/22 11:34:07;;;;;;;6.22;3.28;;;;;;;1.69;100.00;98281.63;5039864;28;20040;-65
2023/11/22 11:36:37;;;;;;;6.40;3.27;;;;;;;1.68;100.00;98274.63;5027539;28;20051;-65